createdAt,value
2022-12-31T00:00:17.344Z,6.85
2022-12-31T00:02:46.083Z,7.82
2022-12-31T00:05:14.816Z,5.82
2022-12-31T00:07:43.520Z,6.18
2022-12-31T00:10:12.275Z,7.47
2022-12-31T00:12:41.143Z,5.45
2022-12-31T00:15:10.633Z,6.28
2022-12-31T00:17:41.329Z,5.78
2022-12-31T00:20:15.194Z,7.47
2022-12-31T00:22:44.069Z,9.10
2022-12-31T00:25:12.790Z,5.97
2022-12-31T00:27:41.480Z,8.75
2022-12-31T00:30:13.092Z,6.78
2022-12-31T00:32:43.705Z,9.50
2022-12-31T00:35:12.352Z,8.93
2022-12-31T00:37:41.032Z,9.07
2022-12-31T00:40:13.809Z,8.20
2022-12-31T00:42:42.446Z,8.35
2022-12-31T00:45:12.453Z,9.93
2022-12-31T00:47:42.999Z,9.05
2022-12-31T00:50:11.937Z,8.23
2022-12-31T00:52:40.543Z,9.70
2022-12-31T00:55:10.580Z,9.25
2022-12-31T00:57:39.202Z,6.40
2022-12-31T01:00:10.909Z,8.30
2022-12-31T01:02:39.753Z,7.55
2022-12-31T01:05:11.239Z,6.90
2022-12-31T01:07:40.042Z,8.10
2022-12-31T01:10:10.253Z,7.45
2022-12-31T01:12:38.894Z,9.77
2022-12-31T01:15:09.249Z,6.82
2022-12-31T01:17:43.878Z,8.52
2022-12-31T01:20:14.656Z,8.35
2022-12-31T01:22:43.308Z,7.00
2022-12-31T01:25:11.960Z,6.35
2022-12-31T01:27:40.535Z,7.57
2022-12-31T01:30:11.473Z,8.27
2022-12-31T01:32:40.141Z,8.07
2022-12-31T01:35:10.186Z,7.07
2022-12-31T01:37:40.753Z,9.68
2022-12-31T01:40:10.710Z,7.00
2022-12-31T01:42:39.462Z,9.13
2022-12-31T01:45:13.982Z,11.25
2022-12-31T01:47:46.998Z,7.70
2022-12-31T01:50:22.917Z,7.38
2022-12-31T01:53:00.515Z,8.68
2022-12-31T01:55:34.245Z,7.18
2022-12-31T01:58:07.968Z,11.43
2022-12-31T02:00:36.975Z,8.15
2022-12-31T02:03:07.162Z,8.23
2022-12-31T02:05:40.991Z,7.93
2022-12-31T02:08:12.282Z,6.45
2022-12-31T02:10:41.211Z,7.38
2022-12-31T02:13:10.117Z,7.60
2022-12-31T02:15:49.366Z,9.35
2022-12-31T02:18:31.894Z,7.93
2022-12-31T02:21:32.242Z,5.55
2022-12-31T02:24:54.866Z,5.68
2022-12-31T02:27:41.346Z,4.35
2022-12-31T02:30:23.138Z,6.65
2022-12-31T02:33:11.544Z,6.07
2022-12-31T02:35:50.233Z,6.10
2022-12-31T02:38:32.000Z,7.07
2022-12-31T02:41:01.687Z,6.70
2022-12-31T02:43:30.645Z,8.02
2022-12-31T02:46:14.657Z,7.85
2022-12-31T02:48:55.591Z,7.82
2022-12-31T02:51:36.497Z,7.18
2022-12-31T02:54:20.805Z,8.30
2022-12-31T02:57:05.213Z,8.27
2022-12-31T02:59:53.650Z,9.18
2022-12-31T03:02:29.582Z,7.57
2022-12-31T03:05:02.514Z,6.63
2022-12-31T03:07:34.237Z,8.18
2022-12-31T03:10:03.546Z,10.18
2022-12-31T03:12:46.143Z,10.02
2022-12-31T03:15:21.778Z,5.82
2022-12-31T03:17:57.988Z,8.40
2022-12-31T03:20:43.792Z,7.07
2022-12-31T03:23:16.372Z,7.97
2022-12-31T03:25:44.314Z,9.32
2022-12-31T03:28:19.406Z,8.93
2022-12-31T03:30:51.044Z,6.88
2022-12-31T03:33:24.411Z,9.23
2022-12-31T03:35:54.823Z,7.50
2022-12-31T03:38:23.786Z,7.03
2022-12-31T03:40:54.939Z,3.90
2022-12-31T03:43:23.572Z,10.50
2022-12-31T03:45:54.237Z,9.13
2022-12-31T03:48:25.452Z,6.43
2022-12-31T03:50:54.321Z,10.07
2022-12-31T03:53:23.004Z,7.00
2022-12-31T03:55:53.408Z,7.22
2022-12-31T03:58:22.854Z,10.75
2022-12-31T04:00:52.192Z,7.63
2022-12-31T04:03:20.951Z,5.03
2022-12-31T04:05:56.548Z,5.53
2022-12-31T04:08:25.384Z,6.93
2022-12-31T04:10:54.037Z,5.43
2022-12-31T04:13:22.629Z,6.15
2022-12-31T04:15:52.528Z,10.63
2022-12-31T04:18:21.143Z,7.05
2022-12-31T04:20:50.126Z,8.27
2022-12-31T04:23:20.751Z,10.10
2022-12-31T04:25:49.418Z,10.55
2022-12-31T04:28:20.073Z,9.98
2022-12-31T04:30:48.785Z,9.02
2022-12-31T04:33:17.373Z,7.57
2022-12-31T04:35:46.083Z,6.68
2022-12-31T04:38:14.712Z,8.38
2022-12-31T04:40:59.891Z,6.47
2022-12-31T04:43:28.550Z,6.75
2022-12-31T04:45:57.162Z,6.95
2022-12-31T04:48:25.918Z,8.30
2022-12-31T04:50:54.648Z,8.02
2022-12-31T04:53:23.964Z,10.13
2022-12-31T04:56:00.710Z,6.07
2022-12-31T04:58:29.402Z,8.65
2022-12-31T05:00:58.154Z,11.23
2022-12-31T05:03:28.262Z,12.20
2022-12-31T05:06:03.413Z,13.05
2022-12-31T05:08:32.759Z,14.20
2022-12-31T05:11:03.410Z,14.60
2022-12-31T05:13:33.573Z,18.25
2022-12-31T05:16:02.763Z,23.92
2022-12-31T05:18:32.513Z,17.05
2022-12-31T05:21:01.502Z,18.73
2022-12-31T05:23:30.665Z,17.38
2022-12-31T05:25:59.785Z,15.18
2022-12-31T05:28:31.962Z,15.85
2022-12-31T05:31:00.914Z,14.27
2022-12-31T05:33:29.543Z,16.42
2022-12-31T05:35:59.491Z,15.55
2022-12-31T05:38:28.376Z,13.18
2022-12-31T05:41:09.301Z,12.95
2022-12-31T05:43:39.819Z,10.75
2022-12-31T05:46:08.703Z,10.30
2022-12-31T05:48:37.350Z,10.60
2022-12-31T05:51:06.688Z,9.40
2022-12-31T05:53:35.359Z,8.13
2022-12-31T05:56:03.971Z,8.05
2022-12-31T05:58:32.750Z,6.40
2022-12-31T06:01:03.420Z,6.20
2022-12-31T06:03:32.320Z,6.88
2022-12-31T06:06:03.079Z,7.07
2022-12-31T06:08:31.754Z,4.75
2022-12-31T06:11:00.485Z,4.88
2022-12-31T06:13:29.184Z,4.65
2022-12-31T06:15:57.895Z,4.43
2022-12-31T06:18:28.432Z,4.57
2022-12-31T06:21:00.057Z,5.72
2022-12-31T06:23:29.025Z,6.07
2022-12-31T06:25:57.699Z,6.38
2022-12-31T06:28:26.385Z,6.85
2022-12-31T06:31:01.270Z,6.78
2022-12-31T06:33:32.667Z,7.03
2022-12-31T06:36:03.430Z,8.95
2022-12-31T06:38:34.572Z,8.10
2022-12-31T06:41:05.223Z,8.98
2022-12-31T06:43:34.330Z,10.80
2022-12-31T06:46:03.658Z,8.38
2022-12-31T06:48:34.673Z,8.63
2022-12-31T06:51:06.156Z,7.00
2022-12-31T06:53:35.358Z,7.95
2022-12-31T06:56:08.425Z,6.88
2022-12-31T06:58:38.233Z,5.47
2022-12-31T07:01:30.475Z,4.47
2022-12-31T07:04:21.381Z,3.75
2022-12-31T07:06:57.947Z,2.35
2022-12-31T07:09:35.820Z,3.28
2022-12-31T07:12:13.047Z,2.58
2022-12-31T07:14:47.874Z,2.30
2022-12-31T07:17:29.381Z,3.67
2022-12-31T07:20:06.713Z,2.45
2022-12-31T07:22:36.489Z,1.38
2022-12-31T07:25:07.994Z,2.65
2022-12-31T07:27:57.581Z,1.33
2022-12-31T07:30:37.441Z,1.98
2022-12-31T07:33:34.364Z,2.10
2022-12-31T07:36:20.617Z,1.65
2022-12-31T07:38:55.615Z,0.93
2022-12-31T07:41:44.185Z,2.47
2022-12-31T07:44:36.720Z,1.70
2022-12-31T07:47:13.333Z,2.00
2022-12-31T07:49:44.564Z,2.70
2022-12-31T07:52:16.646Z,2.22
2022-12-31T07:54:45.664Z,2.70
2022-12-31T07:57:16.483Z,3.30
2022-12-31T08:00:05.540Z,2.42
2022-12-31T08:03:10.519Z,2.05
2022-12-31T08:05:51.383Z,4.00
2022-12-31T08:08:36.453Z,2.88
2022-12-31T08:11:15.883Z,2.95
2022-12-31T08:13:45.329Z,2.85
2022-12-31T08:16:16.033Z,2.28
2022-12-31T08:18:45.447Z,2.13
2022-12-31T08:21:29.550Z,2.53
2022-12-31T08:24:15.336Z,4.03
2022-12-31T08:26:57.887Z,3.90
2022-12-31T08:29:37.228Z,4.90
2022-12-31T08:32:14.205Z,1.73
2022-12-31T08:34:53.051Z,4.00
2022-12-31T08:37:32.840Z,4.72
2022-12-31T08:40:21.176Z,3.75
2022-12-31T08:43:17.564Z,3.95
2022-12-31T08:45:51.114Z,3.08
2022-12-31T08:48:31.783Z,2.75
2022-12-31T08:51:01.410Z,4.18
2022-12-31T08:53:31.436Z,4.88
2022-12-31T08:56:09.135Z,6.20
2022-12-31T08:58:51.565Z,4.35
2022-12-31T09:01:26.396Z,4.97
2022-12-31T09:04:21.725Z,4.15
2022-12-31T09:06:58.978Z,8.90
2022-12-31T09:09:42.486Z,8.02
2022-12-31T09:12:24.082Z,5.93
2022-12-31T09:14:59.877Z,5.90
2022-12-31T09:17:45.396Z,7.88
2022-12-31T09:20:23.474Z,4.65
2022-12-31T09:22:54.043Z,8.65
2022-12-31T09:25:25.900Z,5.82
2022-12-31T09:30:47.066Z,4.53
2022-12-31T09:33:32.430Z,6.88
2022-12-31T09:36:06.829Z,3.38
2022-12-31T09:38:45.272Z,9.68
2022-12-31T09:41:17.572Z,5.50
2022-12-31T09:44:39.538Z,4.07
2022-12-31T09:48:01.660Z,4.15
2022-12-31T09:50:52.036Z,3.30
2022-12-31T09:53:54.643Z,5.78
2022-12-31T09:56:30.758Z,3.58
2022-12-31T09:59:07.800Z,4.25
2022-12-31T10:01:56.024Z,8.95
2022-12-31T10:04:44.071Z,4.75
2022-12-31T10:07:34.059Z,6.50
2022-12-31T10:10:14.834Z,5.40
2022-12-31T10:13:30.317Z,3.85
2022-12-31T10:16:32.554Z,9.00
2022-12-31T10:22:02.231Z,4.57
2022-12-31T10:24:54.685Z,3.65
2022-12-31T10:27:43.621Z,4.35
2022-12-31T10:30:18.742Z,4.50
2022-12-31T10:33:08.868Z,5.38
2022-12-31T10:35:45.059Z,6.25
2022-12-31T10:38:31.293Z,8.32
2022-12-31T10:42:03.658Z,4.88
2022-12-31T10:45:08.763Z,6.93
2022-12-31T10:48:39.016Z,8.63
2022-12-31T10:51:43.126Z,7.82
2022-12-31T10:54:39.720Z,6.72
2022-12-31T10:57:52.028Z,6.65
2022-12-31T11:00:21.937Z,5.68
2022-12-31T11:03:40.278Z,2.92
2022-12-31T11:07:13.279Z,4.35
2022-12-31T11:10:27.814Z,5.47
2022-12-31T11:13:43.380Z,4.57
2022-12-31T11:16:29.920Z,22.80
2022-12-31T11:19:06.348Z,6.55
2022-12-31T11:21:52.211Z,6.53
2022-12-31T11:24:37.410Z,7.28
2022-12-31T11:27:23.812Z,5.15
2022-12-31T11:30:07.590Z,6.10
2022-12-31T11:32:54.103Z,5.05
2022-12-31T11:35:38.769Z,4.35
2022-12-31T11:38:23.071Z,3.10
2022-12-31T11:41:02.116Z,4.55
2022-12-31T11:43:38.841Z,5.90
2022-12-31T11:46:48.544Z,8.13
2022-12-31T11:49:42.617Z,5.13
2022-12-31T11:52:48.264Z,6.78
2022-12-31T11:55:42.789Z,10.07
2022-12-31T11:58:16.820Z,7.22
2022-12-31T12:00:57.036Z,7.57
2022-12-31T12:03:26.552Z,6.32
2022-12-31T12:05:57.495Z,9.32
2022-12-31T12:08:27.986Z,10.50
2022-12-31T12:11:08.043Z,7.10
2022-12-31T12:13:36.803Z,6.13
2022-12-31T12:16:09.281Z,6.72
2022-12-31T12:18:44.066Z,7.10
2022-12-31T12:21:15.920Z,9.25
2022-12-31T12:26:36.238Z,6.40
2022-12-31T12:29:12.575Z,7.20
2022-12-31T12:31:42.047Z,6.78
2022-12-31T12:34:26.622Z,9.32
2022-12-31T12:36:55.333Z,8.45
2022-12-31T12:39:29.475Z,8.95
2022-12-31T12:42:06.064Z,11.70
2022-12-31T12:44:35.223Z,8.98
2022-12-31T12:47:06.582Z,6.22
2022-12-31T12:49:42.681Z,7.03
2022-12-31T12:53:04.324Z,8.00
2022-12-31T12:55:48.122Z,6.13
2022-12-31T12:58:35.847Z,9.07
2022-12-31T13:01:14.737Z,11.90
2022-12-31T13:04:40.195Z,9.70
2022-12-31T13:07:23.307Z,10.57
2022-12-31T13:10:17.319Z,7.63
2022-12-31T13:13:23.887Z,9.27
2022-12-31T13:15:58.441Z,21.50
2022-12-31T13:18:46.092Z,10.52
2022-12-31T13:21:43.248Z,6.30
2022-12-31T13:24:28.749Z,9.93
2022-12-31T13:27:05.782Z,8.75
2022-12-31T13:29:36.883Z,8.40
2022-12-31T13:32:10.711Z,9.30
2022-12-31T13:34:45.836Z,7.60
2022-12-31T13:37:28.236Z,7.22
2022-12-31T13:40:04.407Z,6.50
2022-12-31T13:42:43.767Z,7.55
2022-12-31T13:45:18.146Z,8.13
2022-12-31T13:47:55.381Z,8.30
2022-12-31T13:50:31.019Z,7.50
2022-12-31T13:53:08.656Z,8.82
2022-12-31T13:55:43.770Z,8.02
2022-12-31T13:58:24.603Z,8.45
2022-12-31T14:01:04.650Z,6.88
2022-12-31T14:03:46.398Z,9.55
2022-12-31T14:06:26.976Z,8.95
2022-12-31T14:08:55.822Z,12.15
2022-12-31T14:11:45.556Z,9.10
2022-12-31T14:14:30.336Z,9.57
2022-12-31T14:17:06.860Z,6.05
2022-12-31T14:19:54.707Z,8.82
2022-12-31T14:22:36.189Z,9.45
2022-12-31T14:25:10.273Z,9.88
2022-12-31T14:27:43.507Z,8.93
2022-12-31T14:30:19.447Z,8.10
2022-12-31T14:33:30.459Z,6.82
2022-12-31T14:36:19.135Z,8.18
2022-12-31T14:39:09.374Z,7.47
2022-12-31T14:41:54.050Z,8.82
2022-12-31T14:44:42.424Z,8.38
2022-12-31T14:47:36.877Z,9.38
2022-12-31T14:50:13.267Z,12.05
2022-12-31T14:52:55.242Z,18.13
2022-12-31T15:00:56.297Z,13.00
2022-12-31T15:03:34.085Z,9.95
2022-12-31T15:06:17.330Z,12.77
2022-12-31T15:09:07.899Z,16.33
2022-12-31T15:11:53.500Z,10.70
2022-12-31T15:14:54.486Z,18.92
2022-12-31T16:01:51.250Z,16.20
2022-12-31T16:04:40.007Z,13.88
2022-12-31T16:07:19.025Z,22.40
2022-12-31T16:10:19.022Z,14.90
2022-12-31T16:12:48.338Z,15.40
2022-12-31T16:15:28.905Z,16.88
2022-12-31T16:18:06.077Z,17.80
2022-12-31T16:20:42.147Z,14.35
2022-12-31T16:23:23.335Z,15.02
2022-12-31T16:25:57.856Z,14.32
2022-12-31T16:28:31.469Z,16.20
2022-12-31T16:31:09.023Z,16.15
2022-12-31T16:36:21.021Z,20.67
2022-12-31T16:39:23.861Z,24.42
2022-12-31T16:41:53.641Z,23.35
2022-12-31T16:44:31.110Z,18.20
2022-12-31T16:47:03.697Z,62.40
2022-12-31T16:49:34.713Z,19.35
2022-12-31T16:52:09.637Z,17.67
2022-12-31T16:54:41.886Z,17.05
2022-12-31T16:57:22.333Z,17.63
2022-12-31T16:59:56.278Z,13.23
2022-12-31T17:02:29.071Z,17.05
2022-12-31T17:04:57.956Z,13.73
2022-12-31T17:07:40.528Z,13.82
2022-12-31T17:10:22.946Z,12.57
2022-12-31T17:15:46.879Z,14.45
2022-12-31T17:18:21.874Z,14.10
2022-12-31T17:20:52.674Z,16.50
2022-12-31T17:23:28.522Z,12.23
2022-12-31T17:26:02.522Z,15.38
2022-12-31T17:28:43.219Z,13.38
2022-12-31T17:31:31.797Z,31.92
2022-12-31T17:34:26.167Z,18.60
2022-12-31T17:37:02.532Z,14.45
2022-12-31T17:39:46.934Z,14.98
2022-12-31T17:42:25.789Z,12.45
2022-12-31T17:44:59.661Z,14.40
2022-12-31T17:47:37.149Z,11.57
2022-12-31T17:50:21.340Z,12.90
2022-12-31T17:52:50.415Z,27.83
2022-12-31T17:55:21.238Z,13.30
2022-12-31T17:57:53.718Z,14.27
2022-12-31T18:00:26.870Z,13.48
2022-12-31T18:02:55.696Z,16.33
2022-12-31T18:05:26.482Z,18.73
2022-12-31T18:07:55.549Z,11.68
2022-12-31T18:10:27.551Z,15.18
2022-12-31T18:12:58.250Z,17.65
2022-12-31T18:15:27.237Z,18.38
2022-12-31T18:17:55.865Z,15.07
2022-12-31T18:20:25.472Z,14.82
2022-12-31T18:22:55.206Z,11.40
2022-12-31T18:25:26.025Z,20.40
2022-12-31T18:27:54.899Z,14.05
2022-12-31T18:30:23.641Z,14.85
2022-12-31T18:32:52.656Z,15.98
2022-12-31T18:38:17.021Z,17.92
2022-12-31T18:43:42.103Z,33.83
2022-12-31T18:46:13.555Z,16.90
2022-12-31T18:48:43.633Z,16.30
2022-12-31T18:51:15.628Z,20.02
2022-12-31T18:53:44.342Z,27.45
2022-12-31T18:56:18.007Z,17.92
2022-12-31T18:58:47.525Z,16.58
2022-12-31T19:01:30.096Z,19.63
2022-12-31T19:04:01.388Z,16.35
2022-12-31T19:06:31.144Z,13.43
2022-12-31T19:09:01.194Z,12.48
2022-12-31T19:11:32.318Z,18.48
2022-12-31T19:14:01.082Z,28.83
2022-12-31T19:16:29.863Z,28.27
2022-12-31T19:19:01.530Z,13.05
2022-12-31T19:21:32.539Z,14.38
2022-12-31T19:24:01.248Z,16.75
2022-12-31T19:26:31.988Z,15.07
2022-12-31T19:29:00.692Z,16.55
2022-12-31T19:31:29.370Z,14.02
2022-12-31T19:33:58.106Z,11.27
2022-12-31T19:36:26.808Z,14.07
2022-12-31T19:38:55.516Z,15.02
2022-12-31T19:41:24.344Z,16.75
2022-12-31T19:43:55.129Z,12.43
2022-12-31T19:46:24.634Z,10.20
2022-12-31T19:48:54.013Z,10.98
2022-12-31T19:51:23.507Z,13.88
2022-12-31T19:53:52.301Z,19.65
2022-12-31T19:56:22.403Z,22.80
2022-12-31T19:58:51.070Z,20.85
2022-12-31T20:01:25.165Z,13.65
2022-12-31T20:03:55.998Z,14.27
2022-12-31T20:06:24.661Z,15.48
2022-12-31T20:08:53.304Z,12.38
2022-12-31T20:11:25.305Z,15.57
2022-12-31T20:13:55.038Z,17.08
2022-12-31T20:16:29.297Z,22.27
2022-12-31T20:18:58.086Z,15.75
2022-12-31T20:21:29.872Z,17.27
2022-12-31T20:26:27.525Z,18.23
2022-12-31T20:28:56.269Z,18.00
2022-12-31T20:31:27.826Z,17.88
2022-12-31T20:33:57.352Z,51.67
2022-12-31T20:36:26.905Z,27.73
2022-12-31T20:38:55.621Z,17.75
2022-12-31T20:41:25.646Z,16.05
2022-12-31T20:43:54.474Z,19.10
2022-12-31T20:46:28.044Z,27.95
2022-12-31T20:48:59.923Z,26.13
2022-12-31T20:54:03.011Z,19.70
2022-12-31T20:56:34.334Z,15.02
2022-12-31T20:59:04.219Z,17.23
2022-12-31T21:01:55.416Z,14.77
2022-12-31T21:04:24.366Z,16.25
2022-12-31T21:06:53.777Z,21.10
2022-12-31T21:14:44.399Z,18.48
2022-12-31T21:19:35.111Z,26.15
2022-12-31T21:22:06.934Z,19.58
2022-12-31T21:27:06.093Z,14.63
2022-12-31T21:30:01.928Z,19.50
2022-12-31T21:32:28.665Z,20.75
2022-12-31T21:35:39.678Z,31.33
2022-12-31T21:37:57.942Z,18.33
2022-12-31T21:40:29.023Z,16.63
2022-12-31T21:42:57.880Z,17.35
2022-12-31T21:45:26.962Z,16.60
2022-12-31T21:48:08.916Z,21.75
2022-12-31T21:53:08.374Z,16.67
2022-12-31T21:55:52.998Z,12.55
2022-12-31T21:58:26.872Z,23.55
2022-12-31T22:01:10.901Z,15.68
2022-12-31T22:03:39.943Z,15.00
2022-12-31T22:06:33.479Z,17.20
2022-12-31T22:09:07.313Z,17.95
2022-12-31T22:11:38.000Z,17.83
2022-12-31T22:14:06.721Z,15.00
2022-12-31T22:16:35.398Z,15.70
2022-12-31T22:19:04.352Z,18.60
2022-12-31T22:21:35.097Z,14.38
2022-12-31T22:24:04.786Z,15.68
2022-12-31T22:26:33.675Z,23.00
2022-12-31T22:29:03.046Z,18.42
2022-12-31T22:31:31.969Z,19.92
2022-12-31T22:34:01.459Z,25.42
2022-12-31T22:36:30.303Z,15.85
2022-12-31T22:39:01.343Z,16.20
2022-12-31T22:41:30.526Z,13.87
2022-12-31T22:44:04.554Z,15.88
2022-12-31T22:46:35.453Z,13.27
2022-12-31T22:49:06.435Z,15.90
2022-12-31T22:51:57.299Z,15.27
2022-12-31T22:54:27.434Z,18.70
2022-12-31T22:56:56.312Z,18.90
2022-12-31T23:03:24.196Z,39.80
2022-12-31T23:05:57.882Z,87.97
2022-12-31T23:09:03.850Z,53.20
2022-12-31T23:15:05.944Z,79.55
2022-12-31T23:18:00.120Z,185.77
2022-12-31T23:20:41.897Z,84.07
2022-12-31T23:23:16.045Z,101.95
2022-12-31T23:25:47.615Z,71.00
2022-12-31T23:28:19.201Z,84.30
2022-12-31T23:30:50.896Z,84.90
2022-12-31T23:33:22.820Z,96.82
2022-12-31T23:35:51.781Z,53.90
2022-12-31T23:38:20.976Z,55.17
2022-12-31T23:40:49.685Z,68.30
2022-12-31T23:43:23.068Z,51.90
2022-12-31T23:45:54.829Z,72.68
2022-12-31T23:48:23.592Z,58.15
2022-12-31T23:50:54.393Z,50.30
2022-12-31T23:53:24.222Z,60.27
2022-12-31T23:55:54.168Z,53.28
2022-12-31T23:58:23.698Z,48.10
